CheckWX is a tool to help pilots better visualize weather data.  It is not intended as a substitute for an official pre-flight weather briefing.

05:57:39 UTC

CYYD METAR
Smithers Airport
Smithers, Canada
Current

58 mins ago

CYYD 220500Z AUTO 10004KT 070V150 9SM FEW039 BKN050 BKN065 OVC120 M00/M02 A2973 RMK SLP087
Observed
Feb-22 @ 05:00 UTC
Wind
  • 100° at 4 KTS
Visibility
9 SM
Flight Rules
VFR
Cloud Levels
  • Few at 3,900' AGL
  • Broken at 5,000' AGL
  • Broken at 6,500' AGL
  • Overcast at 12,000' AGL
Temperature
C / 32°F
Dewpoint
-2°C / 28°F
Humidity
87%
Altimeter
29.73" Hg
Pressure
1006.82 hPa
Previous

1 hour ago

CYYD 220451Z AUTO 13005KT 9SM BKN039 BKN049 OVC070 M00/M02 A2974 RMK PRESRR SLP091
Observed
Feb-22 @ 04:51 UTC
Wind
  • 130° at 5 KTS
Visibility
9 SM
Flight Rules
VFR
Cloud Levels
  • Broken at 3,900' AGL
  • Broken at 4,900' AGL
  • Overcast at 7,000' AGL
Temperature
C / 32°F
Dewpoint
-2°C / 28°F
Humidity
87%
Altimeter
29.74" Hg
Pressure
1007.12 hPa
Previous

1 hour ago

CYYD 220439Z AUTO 15006KT 090V160 9SM -SN SCT029 BKN044 BKN060 OVC110 M00/M02 A2972 RMK SLP087
Observed
Feb-22 @ 04:39 UTC
Wind
  • 150° at 6 KTS
Visibility
9 SM
Flight Rules
VFR
Conditions
Light Snow
Cloud Levels
  • Scattered at 2,900' AGL
  • Broken at 4,400' AGL
  • Broken at 6,000' AGL
  • Overcast at 11,000' AGL
Temperature
C / 32°F
Dewpoint
-2°C / 28°F
Humidity
87%
Altimeter
29.72" Hg
Pressure
1006.42 hPa